createdAt,value
2022-11-16T00:02:11.965Z,30.15
2022-11-16T00:04:38.865Z,27.50
2022-11-16T00:07:06.229Z,48.75
2022-11-16T00:09:33.297Z,24.02
2022-11-16T00:12:01.396Z,30.63
2022-11-16T00:14:29.192Z,26.55
2022-11-16T00:16:56.154Z,51.30
2022-11-16T00:19:23.260Z,35.22
2022-11-16T00:21:50.007Z,33.15
2022-11-16T00:24:17.523Z,30.02
2022-11-16T00:26:44.000Z,22.33
2022-11-16T00:29:13.739Z,23.25
2022-11-16T00:31:40.684Z,30.30
2022-11-16T00:34:07.169Z,64.57
2022-11-16T00:36:33.675Z,45.25
2022-11-16T00:39:00.118Z,39.85
2022-11-16T00:41:26.612Z,58.97
2022-11-16T00:43:53.175Z,30.38
2022-11-16T00:46:20.636Z,30.38
2022-11-16T00:48:47.170Z,23.50
2022-11-16T00:51:13.754Z,48.30
2022-11-16T00:53:41.435Z,55.33
2022-11-16T00:56:08.116Z,35.88
2022-11-16T00:58:41.187Z,33.65
2022-11-16T01:01:11.225Z,49.95
2022-11-16T01:03:38.143Z,96.68
2022-11-16T01:06:05.593Z,28.45
2022-11-16T01:08:32.594Z,38.30
2022-11-16T01:11:21.397Z,45.90
2022-11-16T01:13:48.256Z,50.17
2022-11-16T01:16:19.023Z,49.28
2022-11-16T01:18:49.344Z,44.20
2022-11-16T01:21:16.487Z,46.15
2022-11-16T01:23:43.855Z,64.05
2022-11-16T01:26:10.329Z,53.42
2022-11-16T01:28:37.865Z,52.85
2022-11-16T01:31:06.128Z,45.85
2022-11-16T01:33:35.713Z,40.42
2022-11-16T01:36:02.356Z,61.60
2022-11-16T01:38:30.132Z,73.15
2022-11-16T01:40:57.913Z,47.35
2022-11-16T01:43:29.216Z,85.43
2022-11-16T01:46:01.723Z,55.92
2022-11-16T01:48:30.584Z,49.60
2022-11-16T01:50:58.037Z,46.50
2022-11-16T01:53:24.909Z,44.88
2022-11-16T01:55:55.707Z,53.60
2022-11-16T01:58:27.538Z,64.28
2022-11-16T02:01:03.260Z,38.63
2022-11-16T02:03:38.582Z,39.33
2022-11-16T02:06:05.201Z,40.47
2022-11-16T02:09:05.221Z,53.35
2022-11-16T02:11:48.010Z,65.30
2022-11-16T02:14:24.460Z,87.07
2022-11-16T02:16:51.754Z,46.35
2022-11-16T02:19:31.615Z,72.72
2022-11-16T02:22:05.099Z,122.28
2022-11-16T02:24:47.091Z,62.05
2022-11-16T02:27:32.380Z,132.43
2022-11-16T02:29:59.065Z,74.75
2022-11-16T02:32:25.514Z,48.10
2022-11-16T02:35:10.767Z,48.17
2022-11-16T02:37:43.906Z,49.97
2022-11-16T02:40:11.678Z,76.90
2022-11-16T02:42:40.389Z,81.43
2022-11-16T02:45:08.556Z,58.03
2022-11-16T02:47:35.145Z,116.35
2022-11-16T02:50:11.337Z,57.08
2022-11-16T02:52:38.787Z,99.88
2022-11-16T02:55:08.731Z,71.13
2022-11-16T02:57:35.218Z,45.88
2022-11-16T03:00:02.351Z,73.18
2022-11-16T03:02:34.438Z,71.75
2022-11-16T03:05:10.049Z,73.32
2022-11-16T03:07:48.325Z,115.13
2022-11-16T03:10:36.455Z,125.55
2022-11-16T03:13:05.561Z,65.45
2022-11-16T03:15:33.097Z,63.13
2022-11-16T03:18:00.150Z,115.78
2022-11-16T03:20:27.972Z,52.13
2022-11-16T03:22:56.413Z,67.47
2022-11-16T03:25:25.976Z,68.10
2022-11-16T03:28:12.755Z,44.42
2022-11-16T03:30:46.993Z,94.15
2022-11-16T03:33:22.071Z,89.65
2022-11-16T03:36:01.351Z,78.20
2022-11-16T03:38:31.386Z,83.50
2022-11-16T03:41:00.261Z,148.43
2022-11-16T03:43:30.431Z,123.45
2022-11-16T03:45:57.451Z,94.50
2022-11-16T03:48:24.261Z,116.95
2022-11-16T03:50:51.616Z,79.63
2022-11-16T03:53:19.072Z,115.60
2022-11-16T03:55:49.842Z,67.68
2022-11-16T03:58:18.605Z,108.03
2022-11-16T04:00:45.350Z,63.90
2022-11-16T04:03:11.935Z,78.90
2022-11-16T04:05:56.869Z,73.15
2022-11-16T04:08:43.543Z,148.30
2022-11-16T04:11:32.333Z,69.28
2022-11-16T04:14:17.647Z,74.35
2022-11-16T04:17:02.845Z,114.68
2022-11-16T04:19:48.019Z,115.72
2022-11-16T04:22:40.534Z,63.20
2022-11-16T04:25:30.698Z,80.28
2022-11-16T04:28:18.634Z,60.92
2022-11-16T04:31:15.403Z,71.88
2022-11-16T04:34:06.177Z,55.00
2022-11-16T04:36:51.483Z,90.05
2022-11-16T04:39:17.948Z,46.75
2022-11-16T04:42:03.674Z,69.60
2022-11-16T04:44:53.465Z,65.43
2022-11-16T04:47:20.321Z,52.50
2022-11-16T04:49:47.646Z,40.58
2022-11-16T04:52:14.208Z,41.10
2022-11-16T04:54:41.874Z,36.88
2022-11-16T04:57:09.320Z,49.75
2022-11-16T04:59:35.793Z,41.70
2022-11-16T05:02:08.921Z,43.72
2022-11-16T05:04:43.239Z,47.22
2022-11-16T05:07:11.940Z,36.05
2022-11-16T05:09:46.752Z,33.05
2022-11-16T05:12:15.262Z,22.75
2022-11-16T05:14:43.486Z,32.88
2022-11-16T05:17:10.500Z,30.45
2022-11-16T05:19:55.659Z,31.75
2022-11-16T05:22:24.518Z,22.92
2022-11-16T05:24:55.111Z,20.65
2022-11-16T05:27:25.554Z,20.70
2022-11-16T05:29:52.756Z,11.43
2022-11-16T05:32:22.289Z,15.73
2022-11-16T05:34:49.627Z,17.42
2022-11-16T05:37:17.721Z,24.65
2022-11-16T05:39:45.153Z,12.57
2022-11-16T05:42:13.091Z,11.20
2022-11-16T05:44:39.583Z,14.93
2022-11-16T05:47:06.315Z,12.55
2022-11-16T05:49:33.587Z,13.15
2022-11-16T05:52:00.120Z,14.90
2022-11-16T05:54:31.283Z,11.15
2022-11-16T05:56:57.804Z,8.93
2022-11-16T05:59:24.570Z,8.80
2022-11-16T06:01:54.184Z,12.05
2022-11-16T06:04:24.501Z,24.33
2022-11-16T06:06:52.915Z,10.65
2022-11-16T06:09:19.508Z,9.93
2022-11-16T06:11:47.878Z,7.82
2022-11-16T06:14:17.244Z,8.30
2022-11-16T06:16:44.140Z,9.63
2022-11-16T06:19:10.951Z,13.52
2022-11-16T06:21:37.589Z,15.32
2022-11-16T06:24:09.415Z,36.10
2022-11-16T06:26:37.879Z,18.70
2022-11-16T06:29:05.426Z,14.98
2022-11-16T06:31:33.671Z,16.02
2022-11-16T06:34:01.989Z,11.57
2022-11-16T06:36:29.241Z,20.67
2022-11-16T06:38:58.962Z,22.83
2022-11-16T06:41:40.213Z,17.17
2022-11-16T06:44:08.955Z,12.45
2022-11-16T06:46:38.598Z,17.17
2022-11-16T06:49:07.840Z,17.02
2022-11-16T06:51:35.661Z,13.55
2022-11-16T06:54:02.300Z,13.65
2022-11-16T06:56:29.247Z,20.23
2022-11-16T06:58:57.633Z,20.67
2022-11-16T07:01:26.761Z,13.32
2022-11-16T07:03:58.828Z,27.52
2022-11-16T07:06:25.779Z,12.30
2022-11-16T07:08:52.266Z,29.60
2022-11-16T07:11:23.792Z,17.35
2022-11-16T07:13:50.355Z,23.80
2022-11-16T07:16:17.000Z,18.95
2022-11-16T07:18:50.905Z,14.70
2022-11-16T07:21:18.145Z,22.27
2022-11-16T07:23:45.420Z,16.30
2022-11-16T07:26:17.377Z,18.70
2022-11-16T07:28:49.729Z,31.33
2022-11-16T07:31:19.901Z,20.17
2022-11-16T07:33:46.885Z,23.75
2022-11-16T07:36:28.269Z,12.35
2022-11-16T07:38:56.006Z,11.40
2022-11-16T07:41:23.868Z,12.82
2022-11-16T07:44:02.878Z,23.38
2022-11-16T07:46:48.503Z,25.67
2022-11-16T07:49:17.684Z,16.85
2022-11-16T07:52:03.205Z,20.50
2022-11-16T07:54:41.257Z,16.63
2022-11-16T07:57:08.227Z,19.55
2022-11-16T07:59:34.888Z,13.40
2022-11-16T08:02:03.406Z,23.48
2022-11-16T08:04:30.888Z,12.65
2022-11-16T08:06:58.444Z,12.40
2022-11-16T08:09:27.547Z,19.70
2022-11-16T08:11:54.888Z,28.58
2022-11-16T08:14:22.593Z,29.45
2022-11-16T08:16:50.817Z,28.15
2022-11-16T08:19:19.504Z,21.75
2022-11-16T08:21:46.169Z,20.52
2022-11-16T08:24:14.647Z,12.02
2022-11-16T08:26:42.879Z,13.35
2022-11-16T08:29:13.022Z,13.65
2022-11-16T08:31:44.302Z,15.35
2022-11-16T08:34:13.824Z,8.82
2022-11-16T08:36:44.582Z,20.05
2022-11-16T08:39:12.215Z,16.95
2022-11-16T08:41:38.863Z,14.00
2022-11-16T08:44:07.775Z,16.73
2022-11-16T08:46:37.664Z,14.23
2022-11-16T08:49:17.739Z,10.75
2022-11-16T08:51:44.249Z,19.20
2022-11-16T08:54:10.803Z,13.90
2022-11-16T08:56:40.187Z,17.70
2022-11-16T08:59:06.894Z,15.77
2022-11-16T09:01:33.754Z,15.45
2022-11-16T09:04:00.401Z,12.02
2022-11-16T09:06:27.563Z,10.43
2022-11-16T09:08:54.318Z,11.82
2022-11-16T09:11:22.531Z,13.18
2022-11-16T09:13:50.019Z,15.57
2022-11-16T09:16:17.000Z,12.35
2022-11-16T09:18:48.062Z,11.60
2022-11-16T09:21:19.811Z,10.05
2022-11-16T09:23:47.988Z,10.35
2022-11-16T09:26:14.913Z,18.30
2022-11-16T09:28:45.080Z,10.75
2022-11-16T09:31:12.972Z,13.85
2022-11-16T09:33:41.649Z,10.30
2022-11-16T09:36:09.440Z,8.48
2022-11-16T09:39:13.926Z,9.38
2022-11-16T09:41:37.091Z,9.27
2022-11-16T09:44:03.579Z,12.02
2022-11-16T09:46:36.510Z,14.60
2022-11-16T09:49:16.918Z,11.93
2022-11-16T09:51:46.599Z,6.78
2022-11-16T09:54:16.344Z,8.85
2022-11-16T09:56:43.943Z,9.48
2022-11-16T09:59:25.875Z,9.30
2022-11-16T10:02:21.686Z,10.02
2022-11-16T10:04:58.638Z,7.60
2022-11-16T10:07:42.095Z,12.07
2022-11-16T10:10:18.559Z,11.20
2022-11-16T10:13:08.646Z,9.43
2022-11-16T10:15:40.927Z,8.65
2022-11-16T10:18:25.861Z,6.18
2022-11-16T10:21:10.809Z,8.35
2022-11-16T10:23:56.438Z,10.90
2022-11-16T10:26:32.621Z,10.45
2022-11-16T10:29:11.304Z,8.68
2022-11-16T10:31:54.285Z,11.70
2022-11-16T10:34:26.288Z,10.07
2022-11-16T10:37:03.252Z,10.05
2022-11-16T10:39:31.247Z,7.47
2022-11-16T10:42:06.096Z,11.88
2022-11-16T10:45:03.176Z,10.40
2022-11-16T10:47:42.631Z,6.70
2022-11-16T10:50:19.897Z,12.80
2022-11-16T10:52:46.451Z,8.27
2022-11-16T10:55:21.653Z,11.50
2022-11-16T10:57:58.828Z,11.30
2022-11-16T11:00:34.740Z,7.97
2022-11-16T11:03:01.494Z,8.18
2022-11-16T11:05:28.095Z,6.93
2022-11-16T11:08:10.139Z,13.13
2022-11-16T11:10:40.588Z,9.20
2022-11-16T11:13:12.019Z,9.13
2022-11-16T11:15:39.739Z,5.93
2022-11-16T11:18:24.383Z,12.73
2022-11-16T11:21:08.160Z,8.32
2022-11-16T11:23:43.452Z,9.70
2022-11-16T11:26:36.475Z,7.43
2022-11-16T11:29:09.427Z,9.10
2022-11-16T11:31:40.252Z,6.88
2022-11-16T11:34:06.738Z,6.82
2022-11-16T11:36:40.322Z,8.48
2022-11-16T11:39:08.627Z,5.35
2022-11-16T11:41:37.379Z,9.55
2022-11-16T11:44:05.655Z,5.85
2022-11-16T11:47:28.531Z,8.07
2022-11-16T11:49:33.809Z,7.00
2022-11-16T11:52:05.046Z,7.45
2022-11-16T11:54:46.114Z,7.47
2022-11-16T11:57:15.648Z,7.78
2022-11-16T11:59:42.135Z,6.07
2022-11-16T12:02:17.461Z,5.53
2022-11-16T12:04:54.147Z,7.05
2022-11-16T12:07:32.764Z,7.13
2022-11-16T12:10:11.218Z,4.22
2022-11-16T12:12:42.973Z,9.50
2022-11-16T12:15:24.458Z,9.55
2022-11-16T12:17:58.014Z,5.07
2022-11-16T12:20:39.026Z,6.63
2022-11-16T12:23:18.502Z,5.35
2022-11-16T12:26:03.068Z,4.72
2022-11-16T12:28:55.649Z,4.57
2022-11-16T12:31:40.843Z,5.55
2022-11-16T12:34:07.450Z,6.47
2022-11-16T12:36:52.112Z,5.22
2022-11-16T12:39:33.773Z,4.15
2022-11-16T12:42:22.086Z,6.18
2022-11-16T12:44:57.847Z,4.93
2022-11-16T12:47:33.326Z,6.07
2022-11-16T12:50:02.710Z,6.97
2022-11-16T12:52:29.239Z,6.10
2022-11-16T12:55:24.857Z,3.85
2022-11-16T12:57:50.955Z,3.75
2022-11-16T13:00:18.602Z,4.32
2022-11-16T13:03:04.133Z,3.75
2022-11-16T13:05:33.397Z,3.83
2022-11-16T13:08:04.829Z,5.45
2022-11-16T13:10:34.557Z,3.33
2022-11-16T13:13:30.152Z,3.70
2022-11-16T13:15:48.997Z,3.63
2022-11-16T13:18:16.909Z,4.45
2022-11-16T13:20:46.425Z,4.65
2022-11-16T13:23:44.024Z,4.63
2022-11-16T13:26:20.832Z,5.35
2022-11-16T13:29:07.600Z,5.18
2022-11-16T13:31:38.353Z,3.83
2022-11-16T13:34:13.953Z,4.05
2022-11-16T13:36:43.790Z,7.38
2022-11-16T13:39:13.756Z,5.70
2022-11-16T13:41:59.646Z,3.90
2022-11-16T13:44:28.370Z,6.35
2022-11-16T13:47:04.752Z,8.70
2022-11-16T13:49:48.887Z,6.47
2022-11-16T13:52:26.358Z,8.40
2022-11-16T13:54:56.811Z,6.30
2022-11-16T13:57:23.656Z,3.45
2022-11-16T13:59:54.062Z,4.82
2022-11-16T14:02:34.340Z,3.08
2022-11-16T14:05:01.875Z,6.55
2022-11-16T14:07:36.431Z,7.00
2022-11-16T14:10:08.930Z,4.60
2022-11-16T14:12:38.774Z,6.82
2022-11-16T14:15:11.770Z,6.88
2022-11-16T14:17:51.629Z,3.88
2022-11-16T14:20:34.316Z,6.18
2022-11-16T14:23:11.727Z,6.55
2022-11-16T14:25:38.204Z,4.03
2022-11-16T14:28:04.653Z,6.47
2022-11-16T14:30:35.293Z,6.95
2022-11-16T14:33:01.917Z,7.55
2022-11-16T14:35:30.310Z,5.75
2022-11-16T14:38:04.595Z,4.20
2022-11-16T14:40:43.231Z,3.28
2022-11-16T14:43:16.984Z,3.58
2022-11-16T14:45:46.726Z,4.97
2022-11-16T14:48:15.244Z,5.72
2022-11-16T14:50:43.312Z,2.72
2022-11-16T14:53:10.885Z,3.35
2022-11-16T14:55:41.121Z,3.78
2022-11-16T14:58:07.733Z,3.83
2022-11-16T15:00:34.649Z,4.88
2022-11-16T15:03:02.965Z,8.05
2022-11-16T15:05:32.909Z,12.90
2022-11-16T15:07:59.916Z,10.48
2022-11-16T15:10:28.111Z,12.38
2022-11-16T15:12:57.929Z,14.70
2022-11-16T15:15:27.490Z,9.45
2022-11-16T15:18:00.523Z,13.98
2022-11-16T15:20:29.932Z,20.67
2022-11-16T15:23:00.105Z,7.07
2022-11-16T15:25:26.693Z,18.77
2022-11-16T15:27:53.596Z,10.77
2022-11-16T15:30:21.696Z,4.25
2022-11-16T15:32:49.051Z,7.78
2022-11-16T15:35:18.763Z,9.73
2022-11-16T15:37:45.317Z,4.38
2022-11-16T15:40:12.375Z,3.90
2022-11-16T15:42:39.831Z,4.68
2022-11-16T15:45:11.616Z,5.22
2022-11-16T15:47:42.260Z,4.10
2022-11-16T15:50:15.659Z,2.90
2022-11-16T15:52:43.577Z,5.22
2022-11-16T15:55:30.581Z,4.32
2022-11-16T15:58:12.123Z,5.32
2022-11-16T16:00:38.734Z,3.55
2022-11-16T16:03:06.491Z,5.35
2022-11-16T16:05:33.856Z,6.10
2022-11-16T16:08:00.322Z,4.30
2022-11-16T16:10:27.164Z,5.82
2022-11-16T16:12:55.073Z,6.88
2022-11-16T16:15:25.772Z,5.57
2022-11-16T16:17:53.921Z,4.75
2022-11-16T16:20:24.436Z,8.90
2022-11-16T16:22:51.021Z,6.75
2022-11-16T16:25:31.440Z,6.93
2022-11-16T16:27:58.844Z,8.55
2022-11-16T16:30:25.819Z,5.15
2022-11-16T16:32:52.886Z,6.03
2022-11-16T16:35:20.875Z,6.15
2022-11-16T16:37:51.361Z,6.10
2022-11-16T16:40:18.575Z,6.78
2022-11-16T16:42:50.737Z,6.57
2022-11-16T16:45:19.263Z,6.20
2022-11-16T16:47:45.801Z,6.97
2022-11-16T16:50:12.850Z,5.25
2022-11-16T16:52:39.791Z,6.70
2022-11-16T16:55:06.492Z,8.05
2022-11-16T16:57:32.995Z,5.78
2022-11-16T16:59:59.537Z,10.57
2022-11-16T17:02:26.807Z,6.60
2022-11-16T17:04:53.469Z,8.07
2022-11-16T17:07:20.002Z,8.30
2022-11-16T17:09:46.553Z,8.05
2022-11-16T17:12:13.091Z,7.93
2022-11-16T17:14:39.542Z,6.43
2022-11-16T17:17:06.060Z,8.10
2022-11-16T17:19:32.592Z,5.90
2022-11-16T17:21:59.946Z,6.47
2022-11-16T17:24:26.406Z,6.93
2022-11-16T17:26:53.394Z,8.50
2022-11-16T17:29:19.873Z,6.97
2022-11-16T17:31:47.035Z,5.50
2022-11-16T17:34:14.333Z,10.02
2022-11-16T17:36:41.481Z,6.05
2022-11-16T17:39:08.157Z,5.88
2022-11-16T17:41:34.864Z,6.60
2022-11-16T17:44:01.363Z,7.30
2022-11-16T17:46:28.982Z,6.28
2022-11-16T17:48:55.676Z,7.10
2022-11-16T17:51:23.847Z,8.82
2022-11-16T17:53:50.516Z,9.15
2022-11-16T17:56:18.411Z,7.15
2022-11-16T17:58:45.351Z,7.63
2022-11-16T18:01:12.476Z,7.88
2022-11-16T18:03:39.381Z,7.43
2022-11-16T18:06:11.095Z,11.98
2022-11-16T18:08:37.852Z,6.40
2022-11-16T18:11:14.600Z,6.50
2022-11-16T18:13:41.146Z,5.97
2022-11-16T18:16:10.385Z,6.40
2022-11-16T18:18:37.846Z,6.40
2022-11-16T18:21:04.504Z,6.80
2022-11-16T18:23:31.180Z,8.18
2022-11-16T18:25:57.750Z,5.20
2022-11-16T18:28:24.361Z,12.07
2022-11-16T18:30:50.822Z,7.18
2022-11-16T18:33:17.390Z,8.35
2022-11-16T18:35:44.287Z,8.77
2022-11-16T18:38:13.461Z,9.18
2022-11-16T18:40:40.297Z,10.70
2022-11-16T18:43:11.516Z,8.05
2022-11-16T18:45:38.135Z,7.05
2022-11-16T18:48:04.661Z,6.47
2022-11-16T18:50:31.120Z,8.07
2022-11-16T18:52:57.557Z,8.60
2022-11-16T18:55:23.987Z,8.82
2022-11-16T18:57:50.553Z,5.72
2022-11-16T19:00:19.130Z,7.90
2022-11-16T19:02:45.648Z,9.85
2022-11-16T19:05:12.065Z,6.88
2022-11-16T19:07:38.708Z,8.07
2022-11-16T19:10:05.512Z,7.32
2022-11-16T19:12:31.958Z,7.28
2022-11-16T19:14:58.461Z,7.13
2022-11-16T19:17:25.208Z,7.88
2022-11-16T19:19:51.647Z,7.88
2022-11-16T19:22:19.593Z,8.20
2022-11-16T19:24:46.208Z,6.20
2022-11-16T19:27:12.660Z,12.35
2022-11-16T19:29:39.189Z,14.18
2022-11-16T19:32:05.693Z,8.82
2022-11-16T19:34:33.447Z,10.32
2022-11-16T19:37:00.201Z,10.73
2022-11-16T19:39:26.779Z,8.75
2022-11-16T19:41:53.307Z,12.35
2022-11-16T19:44:20.035Z,11.02
2022-11-16T19:46:46.577Z,9.15
2022-11-16T19:49:19.979Z,10.60
2022-11-16T19:51:46.910Z,8.32
2022-11-16T19:54:16.373Z,9.82
2022-11-16T19:56:43.147Z,9.05
2022-11-16T19:59:09.734Z,10.88
2022-11-16T20:01:36.312Z,10.10
2022-11-16T20:04:03.609Z,10.70
2022-11-16T20:06:34.686Z,10.63
2022-11-16T20:09:04.044Z,7.32
2022-11-16T20:11:31.537Z,11.05
2022-11-16T20:13:58.415Z,9.75
2022-11-16T20:16:26.018Z,9.40
2022-11-16T20:18:53.045Z,10.02
2022-11-16T20:21:22.145Z,13.98
2022-11-16T20:23:48.967Z,8.70
2022-11-16T20:26:15.603Z,11.88
2022-11-16T20:28:42.710Z,7.63
2022-11-16T20:31:15.446Z,10.63
2022-11-16T20:33:42.437Z,8.00
2022-11-16T20:36:10.447Z,8.07
2022-11-16T20:38:37.736Z,9.57
2022-11-16T20:41:14.256Z,12.75
2022-11-16T20:43:41.223Z,9.25
2022-11-16T20:46:08.522Z,9.32
2022-11-16T20:48:35.088Z,8.85
2022-11-16T20:51:01.583Z,9.25
2022-11-16T20:53:28.020Z,8.88
2022-11-16T20:55:54.692Z,8.90
2022-11-16T20:58:23.559Z,9.32
2022-11-16T21:00:50.468Z,8.98
2022-11-16T21:03:16.989Z,9.95
2022-11-16T21:05:44.369Z,10.65
2022-11-16T21:08:11.479Z,10.27
2022-11-16T21:10:38.597Z,12.13
2022-11-16T21:13:24.354Z,10.27
2022-11-16T21:15:54.869Z,7.35
2022-11-16T21:18:23.353Z,9.38
2022-11-16T21:20:59.300Z,7.10
2022-11-16T21:23:26.397Z,10.43
2022-11-16T21:25:52.916Z,14.05
2022-11-16T21:28:24.226Z,9.55
2022-11-16T21:30:58.908Z,13.43
2022-11-16T21:33:25.698Z,13.05
2022-11-16T21:35:55.403Z,6.75
2022-11-16T21:38:22.643Z,6.93
2022-11-16T21:40:49.454Z,8.57
2022-11-16T21:43:16.490Z,10.95
2022-11-16T21:45:47.126Z,7.88
2022-11-16T21:48:13.942Z,7.70
2022-11-16T21:50:40.842Z,6.22
2022-11-16T21:53:07.844Z,5.50
2022-11-16T21:55:34.627Z,8.40
2022-11-16T21:58:03.411Z,6.95
2022-11-16T22:00:30.106Z,6.68
2022-11-16T22:02:57.025Z,5.75
2022-11-16T22:05:42.423Z,6.55
2022-11-16T22:08:11.506Z,6.45
2022-11-16T22:10:38.873Z,7.43
2022-11-16T22:13:05.418Z,8.52
2022-11-16T22:15:31.857Z,5.60
2022-11-16T22:17:58.328Z,6.13
2022-11-16T22:20:24.886Z,5.07
2022-11-16T22:22:51.410Z,6.47
2022-11-16T22:25:18.552Z,7.45
2022-11-16T22:28:13.446Z,5.00
2022-11-16T22:30:33.117Z,5.47
2022-11-16T22:32:59.583Z,6.00
2022-11-16T22:35:25.983Z,7.45
2022-11-16T22:37:52.493Z,6.82
2022-11-16T22:40:18.956Z,10.93
2022-11-16T22:42:45.816Z,6.85
2022-11-16T22:45:12.383Z,9.02
2022-11-16T22:47:38.850Z,10.82
2022-11-16T22:50:05.537Z,15.00
2022-11-16T22:52:32.095Z,8.48
2022-11-16T22:54:58.532Z,6.63
2022-11-16T22:57:25.070Z,9.73
2022-11-16T22:59:51.601Z,8.43
2022-11-16T23:02:18.074Z,7.47
2022-11-16T23:04:44.563Z,12.82
2022-11-16T23:07:11.100Z,7.38
2022-11-16T23:09:37.597Z,10.98
2022-11-16T23:12:23.029Z,12.27
2022-11-16T23:15:08.105Z,10.02
2022-11-16T23:17:34.627Z,8.13
2022-11-16T23:20:19.783Z,11.27
2022-11-16T23:23:04.734Z,11.48
2022-11-16T23:25:50.929Z,12.10
2022-11-16T23:28:18.325Z,10.02
2022-11-16T23:30:44.791Z,6.82
2022-11-16T23:33:13.726Z,11.52
2022-11-16T23:35:40.416Z,9.02
2022-11-16T23:38:07.206Z,14.00
2022-11-16T23:40:38.062Z,8.40
2022-11-16T23:43:25.165Z,9.30
2022-11-16T23:45:51.620Z,13.30
2022-11-16T23:48:18.603Z,10.65
2022-11-16T23:50:45.683Z,13.93
2022-11-16T23:53:12.368Z,12.65
2022-11-16T23:55:39.607Z,8.20
2022-11-16T23:58:06.829Z,10.45
